logo
Rechercher aéroport 
image banner adimage banner adimage banner ad
image banner ad

HKGQ - Gurar

Situé à , Kenya

ICAO - , IATA -

Données fournies par Airmate  

Information générale

Coordonnées: N3°16'49" E39°32'3"
Élévation : 2196 feet MSL.
 
Voir autres Aéroports à Eastern Province

Données opérationnelles

Special qualification required
Heure actuelle UTC:
Heure actuelle locale:
Météo à : - ( 0 km )
METAR: CYMT 290948Z AUTO 31008G16KT 9SM FEW009 03/01 A2991 RMK SLP149
Voir NOTAMs / SUP AIP / TFR affectant cet aéroport [VIEW]
Fréquences de communication: [VIEW]

Pistes:

Identifiant RWYQFULongueur (ft)Largeur (ft)SurfaceLDA (ft)
1100UNK
2900UNK

Coordonnées de l'aéroport

Adresse: Kenya

Vue satellite de HKGQ